sensor_id;sensor_type;location;lat;lon;timestamp;pressure;altitude;pressure_sealevel;temperature;humidity
54806;BME280;62866;55.776;37.496;2023-05-23T00:01:30;100209.91;;;13.73;79.99
54806;BME280;62866;55.776;37.496;2023-05-23T00:03:58;100214.25;;;13.74;80.05
54806;BME280;62866;55.776;37.496;2023-05-23T00:06:25;100203.09;;;13.71;80.51
54806;BME280;62866;55.776;37.496;2023-05-23T00:08:51;100199.75;;;13.68;80.39
54806;BME280;62866;55.776;37.496;2023-05-23T00:11:17;100210.13;;;13.72;80.42
54806;BME280;62866;55.776;37.496;2023-05-23T00:13:44;100203.47;;;13.67;80.57
54806;BME280;62866;55.776;37.496;2023-05-23T00:16:10;100200.75;;;13.61;80.98
54806;BME280;62866;55.776;37.496;2023-05-23T00:18:36;100211.91;;;13.64;81.15
54806;BME280;62866;55.776;37.496;2023-05-23T00:21:02;100218.91;;;13.59;81.30
54806;BME280;62866;55.776;37.496;2023-05-23T00:23:28;100179.28;;;13.33;81.55
54806;BME280;62866;55.776;37.496;2023-05-23T00:25:56;100208.72;;;13.48;81.96
54806;BME280;62866;55.776;37.496;2023-05-23T00:28:22;100215.75;;;13.49;81.78
54806;BME280;62866;55.776;37.496;2023-05-23T00:30:48;100167.81;;;13.18;81.71
54806;BME280;62866;55.776;37.496;2023-05-23T00:33:15;100212.78;;;13.37;82.11
54806;BME280;62866;55.776;37.496;2023-05-23T00:35:41;100208.81;;;13.33;82.39
54806;BME280;62866;55.776;37.496;2023-05-23T00:38:07;100217.34;;;13.37;82.60
54806;BME280;62866;55.776;37.496;2023-05-23T00:40:33;100216.50;;;13.36;82.53
54806;BME280;62866;55.776;37.496;2023-05-23T00:42:59;100208.81;;;13.33;82.80
54806;BME280;62866;55.776;37.496;2023-05-23T00:45:25;100202.59;;;13.26;82.56
54806;BME280;62866;55.776;37.496;2023-05-23T00:47:51;100196.34;;;13.19;82.26
54806;BME280;62866;55.776;37.496;2023-05-23T00:50:17;100210.84;;;13.24;82.63
54806;BME280;62866;55.776;37.496;2023-05-23T00:52:44;100214.75;;;13.22;82.53
54806;BME280;62866;55.776;37.496;2023-05-23T00:55:10;100211.25;;;13.21;82.82
54806;BME280;62866;55.776;37.496;2023-05-23T00:57:37;100209.56;;;13.20;82.57
54806;BME280;62866;55.776;37.496;2023-05-23T01:00:07;100212.06;;;13.22;81.67
54806;BME280;62866;55.776;37.496;2023-05-23T01:02:37;100198.38;;;13.17;81.14
54806;BME280;62866;55.776;37.496;2023-05-23T01:05:06;100203.88;;;13.30;81.69
54806;BME280;62866;55.776;37.496;2023-05-23T01:07:31;100191.66;;;13.27;81.85
54806;BME280;62866;55.776;37.496;2023-05-23T01:09:57;100195.56;;;13.25;82.15
54806;BME280;62866;55.776;37.496;2023-05-23T01:15:32;100195.16;;;13.28;82.39
54806;BME280;62866;55.776;37.496;2023-05-23T01:18:01;100192.47;;;13.28;82.84
54806;BME280;62866;55.776;37.496;2023-05-23T01:21:00;100200.34;;;13.29;82.85
54806;BME280;62866;55.776;37.496;2023-05-23T01:28:52;100193.88;;;13.24;82.39
54806;BME280;62866;55.776;37.496;2023-05-23T01:31:20;100193.16;;;13.37;82.36
54806;BME280;62866;55.776;37.496;2023-05-23T01:33:49;100190.50;;;13.43;81.93
54806;BME280;62866;55.776;37.496;2023-05-23T01:36:17;100184.13;;;13.44;81.92
54806;BME280;62866;55.776;37.496;2023-05-23T01:38:43;100185.59;;;13.47;81.71
54806;BME280;62866;55.776;37.496;2023-05-23T01:41:09;100195.13;;;13.56;81.04
54806;BME280;62866;55.776;37.496;2023-05-23T01:43:34;100191.66;;;13.62;81.28
54806;BME280;62866;55.776;37.496;2023-05-23T01:46:00;100197.91;;;13.69;80.58
54806;BME280;62866;55.776;37.496;2023-05-23T01:48:27;100201.00;;;13.73;80.67
54806;BME280;62866;55.776;37.496;2023-05-23T01:50:54;100210.94;;;13.72;80.26
54806;BME280;62866;55.776;37.496;2023-05-23T01:53:21;100215.28;;;13.73;79.62
54806;BME280;62866;55.776;37.496;2023-05-23T01:55:48;100194.22;;;13.77;79.33
54806;BME280;62866;55.776;37.496;2023-05-23T01:58:13;100164.38;;;13.65;79.44
54806;BME280;62866;55.776;37.496;2023-05-23T02:00:39;100175.78;;;13.74;78.81
54806;BME280;62866;55.776;37.496;2023-05-23T02:03:05;100178.31;;;13.82;79.15
54806;BME280;62866;55.776;37.496;2023-05-23T02:05:31;100184.13;;;13.85;79.81
54806;BME280;62866;55.776;37.496;2023-05-23T02:07:56;100175.25;;;13.91;79.74
54806;BME280;62866;55.776;37.496;2023-05-23T02:10:22;100168.00;;;13.85;79.32
54806;BME280;62866;55.776;37.496;2023-05-23T02:12:47;100183.16;;;13.99;79.30
54806;BME280;62866;55.776;37.496;2023-05-23T02:15:13;100185.25;;;14.04;78.94
54806;BME280;62866;55.776;37.496;2023-05-23T02:17:39;100166.84;;;14.07;78.76
54806;BME280;62866;55.776;37.496;2023-05-23T02:20:07;100180.34;;;14.21;78.24
54806;BME280;62866;55.776;37.496;2023-05-23T02:22:34;100173.31;;;14.26;77.09
54806;BME280;62866;55.776;37.496;2023-05-23T02:25:00;100167.53;;;14.29;77.10
54806;BME280;62866;55.776;37.496;2023-05-23T02:27:25;100163.00;;;14.30;77.69
54806;BME280;62866;55.776;37.496;2023-05-23T02:29:51;100176.63;;;14.35;77.52
54806;BME280;62866;55.776;37.496;2023-05-23T02:32:16;100160.91;;;14.32;76.80
54806;BME280;62866;55.776;37.496;2023-05-23T02:34:42;100164.50;;;14.46;77.13
54806;BME280;62866;55.776;37.496;2023-05-23T02:37:12;100157.25;;;14.46;77.54
54806;BME280;62866;55.776;37.496;2023-05-23T02:39:38;100156.81;;;14.42;77.18
54806;BME280;62866;55.776;37.496;2023-05-23T02:42:03;100153.53;;;14.47;76.10
54806;BME280;62866;55.776;37.496;2023-05-23T02:44:29;100145.84;;;14.44;75.07
54806;BME280;62866;55.776;37.496;2023-05-23T02:46:54;100148.75;;;14.49;74.29
54806;BME280;62866;55.776;37.496;2023-05-23T02:49:20;100145.84;;;14.44;73.47
54806;BME280;62866;55.776;37.496;2023-05-23T02:51:45;100175.06;;;14.67;72.96
54806;BME280;62866;55.776;37.496;2023-05-23T02:54:11;100164.09;;;14.68;72.74
54806;BME280;62866;55.776;37.496;2023-05-23T02:56:37;100173.44;;;14.79;72.80
54806;BME280;62866;55.776;37.496;2023-05-23T02:59:02;100165.56;;;14.84;72.01
54806;BME280;62866;55.776;37.496;2023-05-23T03:01:28;100158.94;;;14.80;72.00
54806;BME280;62866;55.776;37.496;2023-05-23T03:03:54;100170.53;;;14.80;71.81
54806;BME280;62866;55.776;37.496;2023-05-23T03:06:20;100175.50;;;14.77;71.69
54806;BME280;62866;55.776;37.496;2023-05-23T03:08:47;100166.59;;;14.70;71.81
54806;BME280;62866;55.776;37.496;2023-05-23T03:11:12;100181.31;;;14.80;71.62
54806;BME280;62866;55.776;37.496;2023-05-23T03:13:38;100171.38;;;14.81;71.30
54806;BME280;62866;55.776;37.496;2023-05-23T03:16:04;100177.97;;;14.85;71.12
54806;BME280;62866;55.776;37.496;2023-05-23T03:18:29;100175.69;;;14.82;70.72
54806;BME280;62866;55.776;37.496;2023-05-23T03:20:55;100155.63;;;14.78;70.90
54806;BME280;62866;55.776;37.496;2023-05-23T03:23:21;100171.16;;;14.96;69.91
54806;BME280;62866;55.776;37.496;2023-05-23T03:25:46;100179.66;;;15.06;69.22
54806;BME280;62866;55.776;37.496;2023-05-23T03:28:12;100170.09;;;15.10;69.27
54806;BME280;62866;55.776;37.496;2023-05-23T03:30:37;100154.78;;;15.04;69.15
54806;BME280;62866;55.776;37.496;2023-05-23T03:33:03;100159.28;;;15.23;68.15
54806;BME280;62866;55.776;37.496;2023-05-23T03:35:29;100167.75;;;15.40;67.90
54806;BME280;62866;55.776;37.496;2023-05-23T03:37:54;100153.88;;;15.43;67.90
54806;BME280;62866;55.776;37.496;2023-05-23T03:40:20;100164.69;;;15.56;68.03
54806;BME280;62866;55.776;37.496;2023-05-23T03:42:47;100183.31;;;15.64;67.48
54806;BME280;62866;55.776;37.496;2023-05-23T03:45:13;100172.06;;;15.74;66.86
54806;BME280;62866;55.776;37.496;2023-05-23T03:47:39;100165.84;;;15.80;67.00
54806;BME280;62866;55.776;37.496;2023-05-23T03:50:05;100160.00;;;15.83;66.67
54806;BME280;62866;55.776;37.496;2023-05-23T03:52:31;100160.81;;;15.90;66.42
54806;BME280;62866;55.776;37.496;2023-05-23T03:54:57;100163.50;;;15.97;66.13
54806;BME280;62866;55.776;37.496;2023-05-23T03:57:22;100161.78;;;16.02;66.21
54806;BME280;62866;55.776;37.496;2023-05-23T03:59:48;100158.00;;;16.10;66.04
54806;BME280;62866;55.776;37.496;2023-05-23T04:02:13;100143.66;;;16.16;65.84
54806;BME280;62866;55.776;37.496;2023-05-23T04:04:39;100158.09;;;16.35;65.54
54806;BME280;62866;55.776;37.496;2023-05-23T04:07:05;100150.97;;;16.47;64.89
54806;BME280;62866;55.776;37.496;2023-05-23T04:09:30;100138.50;;;16.46;64.97
54806;BME280;62866;55.776;37.496;2023-05-23T04:11:56;100131.28;;;16.40;64.60
54806;BME280;62866;55.776;37.496;2023-05-23T04:14:22;100157.34;;;16.52;64.61
54806;BME280;62866;55.776;37.496;2023-05-23T04:16:50;100158.03;;;16.41;64.71
54806;BME280;62866;55.776;37.496;2023-05-23T04:19:16;100155.38;;;16.35;64.86
54806;BME280;62866;55.776;37.496;2023-05-23T04:21:41;100139.34;;;16.15;65.43
54806;BME280;62866;55.776;37.496;2023-05-23T04:24:07;100155.31;;;16.10;65.50
54806;BME280;62866;55.776;37.496;2023-05-23T04:26:32;100149.38;;;15.94;65.78
54806;BME280;62866;55.776;37.496;2023-05-23T04:29:00;100146.06;;;15.92;65.94
54806;BME280;62866;55.776;37.496;2023-05-23T04:31:26;100147.56;;;15.88;65.66
54806;BME280;62866;55.776;37.496;2023-05-23T04:33:52;100154.16;;;15.92;65.48
54806;BME280;62866;55.776;37.496;2023-05-23T04:36:17;100108.81;;;15.76;65.46
54806;BME280;62866;55.776;37.496;2023-05-23T04:38:43;100156.09;;;16.17;65.15
54806;BME280;62866;55.776;37.496;2023-05-23T04:41:08;100154.38;;;16.29;64.55
54806;BME280;62866;55.776;37.496;2023-05-23T04:43:37;100154.75;;;16.39;64.60
54806;BME280;62866;55.776;37.496;2023-05-23T04:46:08;100141.22;;;16.46;64.15
54806;BME280;62866;55.776;37.496;2023-05-23T04:48:34;100153.56;;;16.60;63.91
54806;BME280;62866;55.776;37.496;2023-05-23T04:51:01;100147.09;;;16.67;63.79
54806;BME280;62866;55.776;37.496;2023-05-23T04:53:30;100157.13;;;16.85;63.90
54806;BME280;62866;55.776;37.496;2023-05-23T04:55:55;100149.72;;;16.99;62.69
54806;BME280;62866;55.776;37.496;2023-05-23T04:58:21;100160.00;;;17.15;62.48
54806;BME280;62866;55.776;37.496;2023-05-23T05:00:47;100153.84;;;17.26;61.84
54806;BME280;62866;55.776;37.496;2023-05-23T05:03:12;100131.41;;;17.26;61.29
54806;BME280;62866;55.776;37.496;2023-05-23T05:05:38;100154.25;;;17.48;60.86
54806;BME280;62866;55.776;37.496;2023-05-23T05:08:03;100151.56;;;17.48;61.01
54806;BME280;62866;55.776;37.496;2023-05-23T05:10:29;100119.41;;;17.22;60.47
54806;BME280;62866;55.776;37.496;2023-05-23T05:12:54;100133.88;;;17.27;60.21
54806;BME280;62866;55.776;37.496;2023-05-23T05:15:20;100147.78;;;17.31;60.37
54806;BME280;62866;55.776;37.496;2023-05-23T05:17:45;100158.22;;;17.27;61.19
54806;BME280;62866;55.776;37.496;2023-05-23T05:20:11;100143.53;;;17.17;61.96
54806;BME280;62866;55.776;37.496;2023-05-23T05:22:37;100180.16;;;17.37;60.30
54806;BME280;62866;55.776;37.496;2023-05-23T05:25:07;100183.09;;;17.54;59.26
54806;BME280;62866;55.776;37.496;2023-05-23T05:27:33;100166.69;;;17.49;58.68
54806;BME280;62866;55.776;37.496;2023-05-23T05:29:59;100182.31;;;17.72;59.23
54806;BME280;62866;55.776;37.496;2023-05-23T05:32:29;100180.56;;;17.77;58.49
54806;BME280;62866;55.776;37.496;2023-05-23T05:35:01;100190.25;;;17.85;58.43
54806;BME280;62866;55.776;37.496;2023-05-23T05:37:27;100179.91;;;17.82;58.71
54806;BME280;62866;55.776;37.496;2023-05-23T05:39:54;100166.91;;;17.72;59.20
54806;BME280;62866;55.776;37.496;2023-05-23T05:42:20;100168.25;;;17.63;58.87
54806;BME280;62866;55.776;37.496;2023-05-23T05:44:46;100177.06;;;17.52;59.27
54806;BME280;62866;55.776;37.496;2023-05-23T05:47:12;100174.53;;;17.39;59.25
54806;BME280;62866;55.776;37.496;2023-05-23T05:49:38;100164.03;;;17.24;59.78
54806;BME280;62866;55.776;37.496;2023-05-23T05:52:05;100163.75;;;17.14;59.79
54806;BME280;62866;55.776;37.496;2023-05-23T05:54:31;100179.91;;;17.21;60.29
54806;BME280;62866;55.776;37.496;2023-05-23T05:56:57;100179.81;;;17.27;60.35
54806;BME280;62866;55.776;37.496;2023-05-23T05:59:23;100171.66;;;17.34;59.72
54806;BME280;62866;55.776;37.496;2023-05-23T06:01:48;100177.38;;;17.44;59.47
54806;BME280;62866;55.776;37.496;2023-05-23T06:04:17;100176.16;;;17.58;59.05
54806;BME280;62866;55.776;37.496;2023-05-23T06:06:43;100163.47;;;17.65;58.67
54806;BME280;62866;55.776;37.496;2023-05-23T06:09:08;100164.44;;;17.71;58.42
54806;BME280;62866;55.776;37.496;2023-05-23T06:11:35;100173.41;;;17.83;58.50
54806;BME280;62866;55.776;37.496;2023-05-23T06:14:04;100168.63;;;17.85;58.65
54806;BME280;62866;55.776;37.496;2023-05-23T06:16:29;100164.88;;;17.86;58.68
54806;BME280;62866;55.776;37.496;2023-05-23T06:18:55;100164.88;;;17.86;58.83
54806;BME280;62866;55.776;37.496;2023-05-23T06:21:20;100145.28;;;17.72;58.95
54806;BME280;62866;55.776;37.496;2023-05-23T06:23:46;100145.28;;;17.72;58.74
54806;BME280;62866;55.776;37.496;2023-05-23T06:26:12;100151.88;;;17.76;59.29
54806;BME280;62866;55.776;37.496;2023-05-23T06:28:37;100150.97;;;17.82;59.52
54806;BME280;62866;55.776;37.496;2023-05-23T06:31:06;100133.84;;;17.89;59.35
54806;BME280;62866;55.776;37.496;2023-05-23T06:33:34;100139.78;;;18.09;58.86
54806;BME280;62866;55.776;37.496;2023-05-23T06:36:00;100145.81;;;18.11;58.31
54806;BME280;62866;55.776;37.496;2023-05-23T06:38:30;100145.59;;;18.12;58.45
54806;BME280;62866;55.776;37.496;2023-05-23T06:40:58;100146.53;;;18.18;58.27
54806;BME280;62866;55.776;37.496;2023-05-23T06:43:24;100124.25;;;18.34;58.09
54806;BME280;62866;55.776;37.496;2023-05-23T06:45:50;100130.81;;;18.68;57.41
54806;BME280;62866;55.776;37.496;2023-05-23T06:48:16;100120.38;;;19.18;56.07
54806;BME280;62866;55.776;37.496;2023-05-23T06:50:41;100122.16;;;19.48;54.81
54806;BME280;62866;55.776;37.496;2023-05-23T06:53:07;100122.34;;;19.69;54.28
54806;BME280;62866;55.776;37.496;2023-05-23T06:55:32;100107.19;;;19.85;53.74
54806;BME280;62866;55.776;37.496;2023-05-23T06:57:59;100108.63;;;20.16;53.69
54806;BME280;62866;55.776;37.496;2023-05-23T07:00:24;100116.28;;;19.91;54.17
54806;BME280;62866;55.776;37.496;2023-05-23T07:02:50;100111.72;;;19.68;54.63
54806;BME280;62866;55.776;37.496;2023-05-23T07:05:16;100103.03;;;19.66;55.13
54806;BME280;62866;55.776;37.496;2023-05-23T07:07:42;100108.06;;;20.02;54.11
54806;BME280;62866;55.776;37.496;2023-05-23T07:10:08;100095.94;;;20.50;53.26
54806;BME280;62866;55.776;37.496;2023-05-23T07:12:34;100094.72;;;20.74;54.39
54806;BME280;62866;55.776;37.496;2023-05-23T07:15:00;100099.97;;;20.98;52.94
54806;BME280;62866;55.776;37.496;2023-05-23T07:17:25;100085.31;;;20.99;51.97
54806;BME280;62866;55.776;37.496;2023-05-23T07:19:54;100086.84;;;21.11;51.55
54806;BME280;62866;55.776;37.496;2023-05-23T07:22:19;100099.56;;;21.44;51.35
54806;BME280;62866;55.776;37.496;2023-05-23T07:24:45;100069.38;;;21.46;50.84
54806;BME280;62866;55.776;37.496;2023-05-23T07:27:10;100096.53;;;21.63;51.06
54806;BME280;62866;55.776;37.496;2023-05-23T07:29:36;100100.44;;;21.72;51.02
54806;BME280;62866;55.776;37.496;2023-05-23T07:32:02;100094.19;;;21.71;51.23
54806;BME280;62866;55.776;37.496;2023-05-23T07:34:27;100091.84;;;21.58;50.10
54806;BME280;62866;55.776;37.496;2023-05-23T07:36:53;100086.78;;;21.45;51.15
54806;BME280;62866;55.776;37.496;2023-05-23T07:39:18;100072.69;;;21.48;50.46
54806;BME280;62866;55.776;37.496;2023-05-23T07:41:47;100066.22;;;21.54;50.81
54806;BME280;62866;55.776;37.496;2023-05-23T07:44:13;100088.94;;;21.65;50.40
54806;BME280;62866;55.776;37.496;2023-05-23T07:46:38;100081.66;;;21.70;49.92
54806;BME280;62866;55.776;37.496;2023-05-23T07:49:04;100077.03;;;21.71;50.10
54806;BME280;62866;55.776;37.496;2023-05-23T07:51:30;100091.31;;;22.05;49.67
54806;BME280;62866;55.776;37.496;2023-05-23T07:53:55;100099.34;;;22.16;49.04
54806;BME280;62866;55.776;37.496;2023-05-23T07:56:21;100100.72;;;22.19;49.31
54806;BME280;62866;55.776;37.496;2023-05-23T07:58:47;100103.03;;;22.05;48.76
54806;BME280;62866;55.776;37.496;2023-05-23T08:01:13;100096.53;;;22.06;48.81
54806;BME280;62866;55.776;37.496;2023-05-23T08:03:38;100090.63;;;21.92;49.10
54806;BME280;62866;55.776;37.496;2023-05-23T08:06:04;100101.72;;;22.08;49.87
54806;BME280;62866;55.776;37.496;2023-05-23T08:08:32;100098.09;;;22.56;49.37
54806;BME280;62866;55.776;37.496;2023-05-23T08:10:57;100101.41;;;22.95;47.73
54806;BME280;62866;55.776;37.496;2023-05-23T08:13:23;100114.03;;;23.01;47.87
54806;BME280;62866;55.776;37.496;2023-05-23T08:15:48;100097.19;;;22.77;47.78
54806;BME280;62866;55.776;37.496;2023-05-23T08:18:14;100099.38;;;22.75;48.28
54806;BME280;62866;55.776;37.496;2023-05-23T08:20:41;100088.88;;;22.62;48.26
54806;BME280;62866;55.776;37.496;2023-05-23T08:23:06;100087.66;;;22.80;48.60
54806;BME280;62866;55.776;37.496;2023-05-23T08:25:32;100099.22;;;22.92;48.74
54806;BME280;62866;55.776;37.496;2023-05-23T08:27:58;100106.09;;;22.99;48.17
54806;BME280;62866;55.776;37.496;2023-05-23T08:30:24;100097.38;;;23.02;48.19
54806;BME280;62866;55.776;37.496;2023-05-23T08:32:52;100098.69;;;22.95;47.62
54806;BME280;62866;55.776;37.496;2023-05-23T08:35:18;100097.50;;;22.81;48.17
54806;BME280;62866;55.776;37.496;2023-05-23T08:37:44;100081.56;;;22.67;48.36
54806;BME280;62866;55.776;37.496;2023-05-23T08:40:21;100091.72;;;22.77;49.31
54806;BME280;62866;55.776;37.496;2023-05-23T08:42:48;100099.22;;;22.92;49.33
54806;BME280;62866;55.776;37.496;2023-05-23T08:45:15;100067.19;;;22.77;50.05
54806;BME280;62866;55.776;37.496;2023-05-23T08:47:44;100082.91;;;23.02;48.88
54806;BME280;62866;55.776;37.496;2023-05-23T08:50:15;100087.84;;;23.00;49.82
54806;BME280;62866;55.776;37.496;2023-05-23T08:52:56;100087.53;;;22.96;50.44
54806;BME280;62866;55.776;37.496;2023-05-23T08:55:27;100080.44;;;22.63;50.95
54806;BME280;62866;55.776;37.496;2023-05-23T08:57:54;100077.63;;;22.53;50.64
54806;BME280;62866;55.776;37.496;2023-05-23T09:00:20;100073.09;;;22.32;51.57
54806;BME280;62866;55.776;37.496;2023-05-23T09:02:47;100083.63;;;22.23;51.91
54806;BME280;62866;55.776;37.496;2023-05-23T09:05:12;100073.78;;;22.17;52.16
54806;BME280;62866;55.776;37.496;2023-05-23T09:07:39;100081.13;;;22.17;52.54
54806;BME280;62866;55.776;37.496;2023-05-23T09:10:05;100068.88;;;22.19;52.61
54806;BME280;62866;55.776;37.496;2023-05-23T09:12:33;100076.03;;;22.25;53.00
54806;BME280;62866;55.776;37.496;2023-05-23T09:15:01;100091.00;;;22.28;52.98
54806;BME280;62866;55.776;37.496;2023-05-23T09:17:27;100092.25;;;22.15;53.20
54806;BME280;62866;55.776;37.496;2023-05-23T09:23:14;100101.75;;;22.13;53.53
54806;BME280;62866;55.776;37.496;2023-05-23T09:25:46;100110.00;;;21.74;55.18
54806;BME280;62866;55.776;37.496;2023-05-23T09:28:12;100114.44;;;21.58;56.61
54806;BME280;62866;55.776;37.496;2023-05-23T09:30:38;100109.13;;;21.47;56.67
54806;BME280;62866;55.776;37.496;2023-05-23T09:33:03;100105.56;;;21.46;56.24
54806;BME280;62866;55.776;37.496;2023-05-23T09:35:29;100106.63;;;21.45;56.65
54806;BME280;62866;55.776;37.496;2023-05-23T09:37:56;100098.34;;;21.35;55.92
54806;BME280;62866;55.776;37.496;2023-05-23T09:40:28;100102.94;;;21.35;56.11
54806;BME280;62866;55.776;37.496;2023-05-23T09:42:54;100100.22;;;21.35;55.96
54806;BME280;62866;55.776;37.496;2023-05-23T09:45:29;100111.13;;;21.35;56.69
54806;BME280;62866;55.776;37.496;2023-05-23T09:47:55;100106.78;;;21.34;56.48
54806;BME280;62866;55.776;37.496;2023-05-23T09:50:21;100123.94;;;21.56;56.54
54806;BME280;62866;55.776;37.496;2023-05-23T09:52:47;100121.84;;;21.41;56.83
54806;BME280;62866;55.776;37.496;2023-05-23T09:55:13;100129.34;;;21.17;56.98
54806;BME280;62866;55.776;37.496;2023-05-23T09:57:40;100129.28;;;20.96;57.75
54806;BME280;62866;55.776;37.496;2023-05-23T10:00:10;100125.25;;;20.81;57.74
54806;BME280;62866;55.776;37.496;2023-05-23T10:03:00;100120.28;;;20.45;59.17
54806;BME280;62866;55.776;37.496;2023-05-23T10:05:34;100127.03;;;20.14;60.66
54806;BME280;62866;55.776;37.496;2023-05-23T10:08:04;100140.09;;;19.89;62.46
54806;BME280;62866;55.776;37.496;2023-05-23T10:10:32;100129.41;;;19.70;62.45
54806;BME280;62866;55.776;37.496;2023-05-23T10:13:27;100129.66;;;19.69;63.12
54806;BME280;62866;55.776;37.496;2023-05-23T10:16:13;100131.91;;;19.60;63.28
54806;BME280;62866;55.776;37.496;2023-05-23T10:18:43;100138.03;;;19.44;64.45
54806;BME280;62866;55.776;37.496;2023-05-23T10:21:11;100134.88;;;19.36;64.24
54806;BME280;62866;55.776;37.496;2023-05-23T10:23:41;100134.16;;;19.17;65.57
54806;BME280;62866;55.776;37.496;2023-05-23T10:26:06;100141.69;;;18.80;67.19
54806;BME280;62866;55.776;37.496;2023-05-23T10:28:33;100122.84;;;18.32;69.10
54806;BME280;62866;55.776;37.496;2023-05-23T10:30:58;100132.13;;;18.24;69.23
54806;BME280;62866;55.776;37.496;2023-05-23T10:33:26;100150.56;;;18.15;70.21
54806;BME280;62866;55.776;37.496;2023-05-23T10:36:39;100140.63;;;18.09;70.24
54806;BME280;62866;55.776;37.496;2023-05-23T10:39:05;100140.13;;;18.01;70.26
54806;BME280;62866;55.776;37.496;2023-05-23T10:41:57;100138.09;;;17.96;70.44
54806;BME280;62866;55.776;37.496;2023-05-23T10:44:28;100153.66;;;18.01;71.59
54806;BME280;62866;55.776;37.496;2023-05-23T10:47:02;100158.41;;;18.17;70.27
54806;BME280;62866;55.776;37.496;2023-05-23T10:49:41;100146.69;;;18.23;71.23
54806;BME280;62866;55.776;37.496;2023-05-23T10:52:09;100135.41;;;17.96;72.20
54806;BME280;62866;55.776;37.496;2023-05-23T10:54:46;100159.31;;;17.81;73.74
54806;BME280;62866;55.776;37.496;2023-05-23T10:57:16;100155.78;;;17.62;74.25
54806;BME280;62866;55.776;37.496;2023-05-23T10:59:42;100142.44;;;17.42;74.66
54806;BME280;62866;55.776;37.496;2023-05-23T11:02:13;100141.84;;;17.22;76.65
54806;BME280;62866;55.776;37.496;2023-05-23T11:04:42;100144.22;;;17.12;77.59
54806;BME280;62866;55.776;37.496;2023-05-23T11:07:27;100150.13;;;17.02;78.92
54806;BME280;62866;55.776;37.496;2023-05-23T11:10:12;100152.06;;;16.95;78.94
54806;BME280;62866;55.776;37.496;2023-05-23T11:12:43;100146.06;;;16.93;79.29
54806;BME280;62866;55.776;37.496;2023-05-23T11:17:56;100143.34;;;16.93;81.11
54806;BME280;62866;55.776;37.496;2023-05-23T11:20:25;100146.66;;;16.95;80.33
54806;BME280;62866;55.776;37.496;2023-05-23T11:22:53;100147.09;;;16.92;80.08
54806;BME280;62866;55.776;37.496;2023-05-23T11:25:20;100142.59;;;16.86;80.49
54806;BME280;62866;55.776;37.496;2023-05-23T11:27:47;100145.34;;;16.80;81.29
54806;BME280;62866;55.776;37.496;2023-05-23T11:30:15;100145.16;;;16.75;82.00
54806;BME280;62866;55.776;37.496;2023-05-23T11:32:53;100151.03;;;16.72;82.12
54806;BME280;62866;55.776;37.496;2023-05-23T11:35:20;100144.84;;;16.64;82.92
54806;BME280;62866;55.776;37.496;2023-05-23T11:37:46;100138.03;;;16.55;83.28
54806;BME280;62866;55.776;37.496;2023-05-23T11:40:32;100155.63;;;16.58;82.66
54806;BME280;62866;55.776;37.496;2023-05-23T11:43:02;100150.78;;;16.42;84.12
54806;BME280;62866;55.776;37.496;2023-05-23T11:45:29;100168.00;;;16.41;84.88
54806;BME280;62866;55.776;37.496;2023-05-23T11:47:55;100160.16;;;16.32;85.52
54806;BME280;62866;55.776;37.496;2023-05-23T11:50:21;100158.09;;;16.35;85.28
54806;BME280;62866;55.776;37.496;2023-05-23T11:52:49;100144.03;;;16.26;85.77
54806;BME280;62866;55.776;37.496;2023-05-23T11:55:21;100158.91;;;16.35;84.83
54806;BME280;62866;55.776;37.496;2023-05-23T11:57:47;100146.66;;;16.32;85.48
54806;BME280;62866;55.776;37.496;2023-05-23T12:00:13;100142.72;;;16.35;84.84
54806;BME280;62866;55.776;37.496;2023-05-23T12:02:40;100147.97;;;16.30;86.01
54806;BME280;62866;55.776;37.496;2023-05-23T12:05:10;100146.03;;;16.37;85.95
54806;BME280;62866;55.776;37.496;2023-05-23T12:07:44;100153.59;;;16.53;86.25
54806;BME280;62866;55.776;37.496;2023-05-23T12:10:12;100149.56;;;16.69;85.88
54806;BME280;62866;55.776;37.496;2023-05-23T12:12:40;100150.47;;;16.88;86.31
54806;BME280;62866;55.776;37.496;2023-05-23T12:15:08;100148.47;;;17.01;85.44
54806;BME280;62866;55.776;37.496;2023-05-23T12:17:35;100129.38;;;17.21;84.29
54806;BME280;62866;55.776;37.496;2023-05-23T12:20:01;100145.38;;;17.41;83.51
54806;BME280;62866;55.776;37.496;2023-05-23T12:22:27;100140.06;;;17.53;82.52
54806;BME280;62866;55.776;37.496;2023-05-23T12:24:53;100131.81;;;17.66;81.76
54806;BME280;62866;55.776;37.496;2023-05-23T12:27:29;100133.47;;;17.85;81.98
54806;BME280;62866;55.776;37.496;2023-05-23T12:30:10;100125.63;;;17.95;80.02
54806;BME280;62866;55.776;37.496;2023-05-23T12:32:42;100132.50;;;18.09;79.76
54806;BME280;62866;55.776;37.496;2023-05-23T12:35:09;100125.72;;;18.18;78.87
54806;BME280;62866;55.776;37.496;2023-05-23T12:37:42;100122.25;;;18.30;78.85
54806;BME280;62866;55.776;37.496;2023-05-23T12:40:10;100110.63;;;18.41;78.94
54806;BME280;62866;55.776;37.496;2023-05-23T12:42:55;100105.13;;;18.59;78.36
54806;BME280;62866;55.776;37.496;2023-05-23T12:45:32;100117.28;;;18.68;77.27
54806;BME280;62866;55.776;37.496;2023-05-23T12:47:58;100110.00;;;18.69;76.70
54806;BME280;62866;55.776;37.496;2023-05-23T12:50:24;100105.66;;;18.79;76.22
54806;BME280;62866;55.776;37.496;2023-05-23T12:52:50;100104.25;;;18.88;75.64
54806;BME280;62866;55.776;37.496;2023-05-23T12:55:16;100093.63;;;18.75;75.28
54806;BME280;62866;55.776;37.496;2023-05-23T12:57:41;100106.47;;;18.91;75.67